Latest Coastal Weather Observations for Hogan Island

IDV60701

Issued at 7:51 am EST Thursday 19 September 2019 (issued every 10 minutes, with the page automatically refreshed every 10 minutes)

About coastal observations | Map of coastal stations | Coastal observations for VIC | Marine services | Other Formats
Station Details ID: 200838 Name: HOGAN ISLAND Lat: -39.22 Lon: 146.98 Height: 116.0 m
Data from the previous 72 hours. | See also: Recent months at Hogan Island
Date/Time
EST
Wind Sea
Height
m
Swell Vis
km
Cloud Weather Temp
°C
Press
hPa
Rain since
9am
mm
Dir  Spd
kts
Gust
kts
Height
m
Period
s
Dir
19/07:30am ENE 12 13 - - - - - - - 12.1 1024.5 0.0
19/07:00am ENE 12 13 - - - - - - - 11.6 1024.4 0.0
19/06:30am ENE 12 13 - - - - - - - 10.9 1024.1 0.0
19/06:00am ENE 11 13 - - - - - - - 10.4 1024.3 0.0
19/05:30am ENE 9 10 - - - - - - - 10.4 1024.3 0.0
19/05:00am ENE 10 11 - - - - - - - 10.5 1024.2 0.0
19/04:30am ENE 10 11 - - - - - - - 10.5 1024.2 0.0
19/04:00am ENE 8 9 - - - - - - - 10.4 1024.3 0.0
19/03:30am NNE 7 8 - - - - - - - 10.0 1024.4 0.0
19/03:00am NE 7 8 - - - - - - - 10.3 1024.7 0.0
19/02:30am NNE 8 8 - - - - - - - 10.3 1024.8 0.0
19/02:00am NE 9 11 - - - - - - - 10.4 1025.1 0.0
19/01:30am NE 10 11 - - - - - - - 10.5 1025.3 0.0
19/01:00am NE 10 12 - - - - - - - 10.6 1025.6 0.0
19/12:30am NE 12 15 - - - - - - - 10.5 1025.9 0.0
19/12:00am NE 13 14 - - - - - - - 10.6 1026.1 0.0
 
Date/Time
EST
Wind Sea
Height
m
Swell Vis
km
Cloud Weather Temp
°C
Press
hPa
Rain since
9am
mm
Dir  Spd
kts
Gust
kts
Height
m
Period
s
Dir
18/11:30pm NE 13 15 - - - - - - - 10.6 1026.1 0.0
18/11:00pm NNE 11 12 - - - - - - - 10.5 1026.4 0.0
18/10:30pm NE 11 13 - - - - - - - 10.3 1026.5 0.0
18/10:00pm NNE 10 11 - - - - - - - 10.4 1026.7 0.0
18/09:30pm NNE 11 12 - - - - - - - 10.3 1026.9 0.0
18/09:00pm NNE 11 13 - - - - - - - 10.5 1027.1 0.0
18/08:30pm NNE 11 13 - - - - - - - 10.4 1026.9 0.0
18/08:00pm NNE 11 13 - - - - - - - 10.3 1026.8 0.0
18/07:30pm NNE 10 12 - - - - - - - 10.0 1026.8 0.0
18/07:00pm NNE 10 13 - - - - - - - 10.0 1026.6 0.0
18/06:30pm NNE 12 13 - - - - - - - 10.1 1026.4 0.0
18/06:00pm NE 11 14 - - - - - - - 10.2 1026.3 0.0
18/05:30pm NE 12 15 - - - - - - - 10.8 1026.0 0.0
18/05:00pm NE 15 19 - - - - - - - 11.3 1025.7 0.0
18/04:30pm NE 15 17 - - - - - - - 11.8 1025.7 0.0
18/04:00pm ENE 15 18 - - - - - - - 12.3 1025.8 0.0
18/03:30pm NE 16 18 - - - - - - - 12.9 1026.0 0.0
18/03:00pm NE 15 17 - - - - - - - 13.5 1026.3 0.0
18/02:30pm NE 15 18 - - - - - - - 13.5 1026.5 0.0
18/02:00pm ENE 17 19 - - - - - - - 13.7 1026.6 0.0
18/01:30pm ENE 17 19 - - - - - - - 13.5 1026.6 0.0
18/01:00pm NE 16 18 - - - - - - - 13.8 1026.9 0.0
18/12:30pm NE 16 19 - - - - - - - 14.4 1027.0 0.0
18/12:00pm NE 18 21 - - - - - - - 13.8 1027.5 0.0
18/11:30am NE 20 22 - - - - - - - 13.6 1027.7 0.0
18/11:00am NNE 18 22 - - - - - - - 14.4 1028.0 0.0
18/10:30am NE 19 23 - - - - - - - 13.5 1028.2 0.0
18/10:00am NE 20 24 - - - - - - - 13.4 1028.3 0.0
18/09:30am NE 19 22 - - - - - - - 13.2 1028.5 0.0
18/09:00am NE 18 21 - - - - - - - 12.9 1028.9 0.2
18/08:30am NE 18 23 - - - - - - - 12.1 1028.6 0.2
18/08:00am NE 17 21 - - - - - - - 11.5 1028.5 0.2
18/07:30am NNE 15 19 - - - - - - - 11.1 1028.3 0.2
18/07:00am NNE 13 17 - - - - - - - 10.4 1028.3 0.2
18/06:30am NNE 14 17 - - - - - - - 9.6 1028.0 0.2
18/06:00am NE 13 16 - - - - - - - 9.4 1028.2 0.2
18/05:30am NE 13 16 - - - - - - - 9.4 1028.0 0.2
18/05:00am NE 11 12 - - - - - - - 9.2 1027.9 0.2
18/04:30am NE 10 12 - - - - - - - 9.1 1028.0 0.2
18/04:00am E 11 13 - - - - - - - 9.4 1028.1 0.2
18/03:30am E 11 14 - - - - - - - 9.3 1028.2 0.2
18/03:00am E 11 13 - - - - - - - 9.3 1028.4 0.2
18/02:30am E 9 11 - - - - - - - 8.6 1028.4 0.2
18/02:00am ESE 8 10 - - - - - - - 8.5 1029.0 0.2
18/01:30am ESE 9 11 - - - - - - - 8.1 1029.4 0.2
18/01:00am ESE 9 11 - - - - - - - 8.6 1029.4 0.2
18/12:30am E 9 10 - - - - - - - 8.9 1029.6 0.2
18/12:00am ESE 10 11 - - - - - - - 8.7 1029.7 0.0
 
Date/Time
EST
Wind Sea
Height
m
Swell Vis
km
Cloud Weather Temp
°C
Press
hPa
Rain since
9am
mm
Dir  Spd
kts
Gust
kts
Height
m
Period
s
Dir
17/11:30pm ESE 10 11 - - - - - - - 8.4 1029.7 0.0
17/11:00pm E 10 11 - - - - - - - 8.5 1029.8 0.0
17/10:30pm ESE 10 12 - - - - - - - 8.3 1029.8 0.0
17/10:00pm E 12 14 - - - - - - - 8.2 1029.7 0.0
17/09:30pm ESE 12 14 - - - - - - - 8.7 1029.7 0.0
17/09:00pm SE 11 13 - - - - - - - 8.8 1029.8 0.0
17/08:30pm SE 10 12 - - - - - - - 8.2 1029.6 0.0
17/08:00pm SSE 11 13 - - - - - - - 8.1 1029.4 0.0
17/07:30pm SSE 11 13 - - - - - - - 7.9 1029.0 0.0
17/07:00pm SE 10 11 - - - - - - - 7.7 1028.6 0.0
17/06:30pm ESE 8 10 - - - - - - - 7.5 1028.5 0.0
17/06:00pm E 8 11 - - - - - - - 8.0 1028.6 0.0
17/05:30pm ESE 8 10 - - - - - - - 8.5 1028.4 0.0
17/05:00pm ESE 9 11 - - - - - - - 9.6 1028.3 0.0
17/04:30pm SE 9 11 - - - - - - - 10.4 1028.1 0.0
17/04:00pm SE 11 13 - - - - - - - 10.8 1027.9 0.0
17/03:30pm SSE 9 11 - - - - - - - 11.4 1028.0 0.0
17/03:00pm SE 9 10 - - - - - - - 11.6 1028.3 0.0
17/02:30pm SE 8 11 - - - - - - - 11.9 1028.1 0.0
17/02:00pm SE 9 11 - - - - - - - 11.9 1028.1 0.0
17/01:30pm SE 9 13 - - - - - - - 12.6 1028.2 0.0
17/01:00pm SSE 10 12 - - - - - - - 12.2 1028.3 0.0
17/12:30pm SE 10 11 - - - - - - - 12.3 1028.6 0.0
17/12:00pm SSE 10 12 - - - - - - - 12.6 1028.8 0.0
17/11:30am SSE 9 12 - - - - - - - 12.5 1028.7 0.0
17/11:00am SSE 10 13 - - - - - - - 12.0 1028.7 0.0
17/10:30am SSE 10 13 - - - - - - - 12.2 1028.6 0.0
17/10:00am S 10 13 - - - - - - - 12.0 1028.7 0.0
17/09:30am SE 9 12 - - - - - - - 11.9 1028.4 0.0
17/09:00am S 9 11 - - - - - - - 11.9 1028.5 0.0
17/08:30am SSE 10 12 - - - - - - - 10.7 1028.0 0.0
17/08:00am SSE 10 12 - - - - - - - 10.3 1027.7 0.0
17/07:30am SSE 10 12 - - - - - - - 9.5 1027.3 0.0
17/07:00am SSE 9 13 - - - - - - - 9.1 1027.0 0.0
17/06:30am SE 8 9 - - - - - - - 6.8 1026.6 0.0
17/06:00am ESE 6 8 - - - - - - - 6.8 1026.5 0.0
17/05:30am ENE 6 8 - - - - - - - 6.6 1025.9 0.0
17/05:00am ESE 17 20 - - - - - - - 7.9 1025.6 0.0
17/04:30am SE 16 18 - - - - - - - 7.6 1025.4 0.0
17/04:00am SSE 12 16 - - - - - - - 7.4 1025.3 0.0
17/03:30am SSE 13 16 - - - - - - - 7.4 1024.9 0.0
17/03:00am SSE 14 17 - - - - - - - 7.6 1025.3 0.0
17/02:30am N 16 21 - - - - - - - 8.0 1025.1 0.0
17/02:00am N 15 21 - - - - - - - 7.8 1025.1 0.0
17/01:30am S 15 20 - - - - - - - 7.9 1025.2 0.0
17/01:00am SSW 16 21 - - - - - - - 7.9 1025.3 0.0
17/12:30am SSW 19 25 - - - - - - - 8.3 1025.3 0.0
17/12:00am SSW 17 24 - - - - - - - 8.3 1025.2 0.0
 
Date/Time
EST
Wind Sea
Height
m
Swell Vis
km
Cloud Weather Temp
°C
Press
hPa
Rain since
9am
mm
Dir  Spd
kts
Gust
kts
Height
m
Period
s
Dir
16/11:30pm SSW 17 23 - - - - - - - 8.1 1024.8 0.0
16/11:19pm SSW 17 27 - - - - - - - 8.5 1024.7 0.0
16/11:00pm SSW 16 24 - - - - - - - 8.4 1024.7 0.0
16/10:30pm SW 20 27 - - - - - - - 8.7 1024.6 0.0
16/10:00pm SW 23 29 - - - - - - - 8.7 1024.3 0.0
16/09:30pm SW 25 31 - - - - - - - 8.7 1024.1 0.0
16/09:00pm SW 23 27 - - - - - - - 8.7 1023.9 0.0
16/08:30pm SW 24 28 - - - - - - - 8.4 1023.7 0.0
16/08:00pm SW 23 27 - - - - - - - 8.5 1023.4 0.0
16/07:30pm SW 22 26 - - - - - - - 8.5 1023.0 0.0
16/07:00pm SW 23 28 - - - - - - - 8.5 1022.4 0.0
16/06:30pm SW 23 28 - - - - - - - 8.4 1022.0 0.0
16/06:00pm SW 23 29 - - - - - - - 8.6 1021.8 0.0
16/05:30pm SW 24 29 - - - - - - - 8.8 1021.5 0.0
16/05:00pm WSW 25 31 - - - - - - - 9.3 1021.2 0.0
16/04:30pm WSW 23 29 - - - - - - - 9.9 1020.8 0.0
16/04:00pm WSW 24 28 - - - - - - - 10.4 1020.6 0.0
16/03:30pm SW 24 30 - - - - - - - 9.9 1020.3 0.0
16/03:00pm WSW 25 30 - - - - - - - 10.9 1019.9 0.0
16/02:30pm WSW 26 31 - - - - - - - 10.3 1019.3 0.0
16/02:00pm WSW 26 32 - - - - - - - 11.3 1019.0 0.0
16/01:30pm WSW 28 32 - - - - - - - 11.0 1018.9 0.0
16/01:00pm SW 26 31 - - - - - - - 11.1 1018.9 0.0
16/12:30pm WSW 26 31 - - - - - - - 11.2 1018.8 0.0
16/12:00pm SW 27 33 - - - - - - - 11.1 1018.8 0.0
16/11:30am SW 28 33 - - - - - - - 10.6 1018.5 0.0
16/11:00am SW 28 34 - - - - - - - 9.5 1018.2 0.0
16/10:30am WSW 28 32 - - - - - - - 11.1 1018.0 0.0
16/10:00am WSW 31 37 - - - - - - - 10.7 1017.4 0.0
16/09:30am WSW 34 40 - - - - - - - 10.4 1016.9 0.0
16/09:00am WSW 36 43 - - - - - - - 10.3 1016.5 2.2
16/08:30am WSW 35 41 - - - - - - - 9.9 1016.2 2.2
16/08:00am WSW 32 39 - - - - - - - 10.0 1016.0 2.2

Other formats

Comma delimited format used in spreadsheet applications
http://www.bom.gov.au/fwo/IDV60701/IDV60701.94949.axf

JavaScript Object Notation format (JSON) in row-major order
http://www.bom.gov.au/fwo/IDV60701/IDV60701.94949.json

Data quality

Most of these data are generated automatically and are frequently updated. Quality checks on data are not normally performed. It is possible for incorrect values to appear. Refer to information at About Latest Weather Observations and please check the disclaimer before using these data.